OTBH/IUD METAR and TAF weather

Enter ICAO airport designator
Station Type Date Time Source
OTBH METAR 2019/08/22 04:59 UTC NOAA

OTBH 220459Z 17005KT 9000 HZ FEW150 36/24 A2963 RMK AO2A SLP031 WND DATA ESTMD ALSTG/SLP ESTMD $


Station Type Date Time Source
OTBH Decoded METAR 2019/08/22 04:59 UTC NOAA

Station name not available
Aug 22, 2019 - 12:59 AM EDT / 2019.08.22 0459 UTC
Wind: from the S (170 degrees) at 6 MPH (5 KT):0
Visibility: 5 mile(s):0
Sky conditions: mostly clear
Weather: haze
Temperature: 96 F (36 C)
Heat index: 107.6 F (42.0 C):1
Dew Point: 75 F (24 C)
Relative Humidity: 50%
Pressure (altimeter): 29.63 in. Hg (1003 hPa)
ob: OTBH 220459Z 17005KT 9000 HZ FEW150 36/24 A2963 RMK AO2A SLP031 WND DATA ESTMD ALSTG/SLP ESTMD
cycle: 5

Station Type Date Time Source
OTBH TAF 2019/08/22 00:09 UTC NOAA

TAF TAF OTBH 220000Z 2200/2306 VRB06KT 6000 BR SKC QNH2960INS
BECMG 2204/2205 10009KT 9000 HZ FEW150 QNH2958INS
BECMG 2209/2210 10012KT 9000 HZ FEW180 QNH2955INS
BECMG 2219/2220 VRB06KT 8000 BR SKC QNH2957INS TX43/2210Z TN30/2201Z

Example: see airport list